sensor_id;sensor_type;location;lat;lon;timestamp;P1;durP1;ratioP1;P2;durP2;ratioP2
14001;SDS011;7076;51.280;12.584;2022-12-04T00:04:08;34.40;;;15.30;;
14001;SDS011;7076;51.280;12.584;2022-12-04T00:09:12;29.17;;;13.63;;
14001;SDS011;7076;51.280;12.584;2022-12-04T00:14:15;40.37;;;17.57;;
14001;SDS011;7076;51.280;12.584;2022-12-04T00:19:18;36.23;;;15.93;;
14001;SDS011;7076;51.280;12.584;2022-12-04T00:24:22;38.60;;;17.03;;
14001;SDS011;7076;51.280;12.584;2022-12-04T00:29:25;35.90;;;16.27;;
14001;SDS011;7076;51.280;12.584;2022-12-04T00:34:28;36.77;;;16.20;;
14001;SDS011;7076;51.280;12.584;2022-12-04T00:39:32;32.70;;;15.73;;
14001;SDS011;7076;51.280;12.584;2022-12-04T00:44:35;31.80;;;14.73;;
14001;SDS011;7076;51.280;12.584;2022-12-04T00:49:37;38.00;;;17.30;;
14001;SDS011;7076;51.280;12.584;2022-12-04T00:54:42;39.77;;;16.10;;
14001;SDS011;7076;51.280;12.584;2022-12-04T00:59:44;37.67;;;15.33;;
14001;SDS011;7076;51.280;12.584;2022-12-04T01:04:47;34.40;;;15.77;;
14001;SDS011;7076;51.280;12.584;2022-12-04T01:09:51;31.70;;;15.23;;
14001;SDS011;7076;51.280;12.584;2022-12-04T01:14:54;35.03;;;16.40;;
14001;SDS011;7076;51.280;12.584;2022-12-04T01:19:57;38.03;;;16.40;;
14001;SDS011;7076;51.280;12.584;2022-12-04T01:25:01;34.90;;;15.70;;
14001;SDS011;7076;51.280;12.584;2022-12-04T01:30:05;28.27;;;13.50;;
14001;SDS011;7076;51.280;12.584;2022-12-04T01:35:08;34.07;;;15.13;;
14001;SDS011;7076;51.280;12.584;2022-12-04T01:40:13;35.63;;;16.53;;
14001;SDS011;7076;51.280;12.584;2022-12-04T01:45:27;38.00;;;17.20;;
14001;SDS011;7076;51.280;12.584;2022-12-04T01:50:38;36.97;;;16.10;;
14001;SDS011;7076;51.280;12.584;2022-12-04T01:55:44;34.50;;;15.60;;
14001;SDS011;7076;51.280;12.584;2022-12-04T02:00:47;36.90;;;15.53;;
14001;SDS011;7076;51.280;12.584;2022-12-04T02:05:58;36.53;;;16.83;;
14001;SDS011;7076;51.280;12.584;2022-12-04T02:11:06;33.33;;;14.90;;
14001;SDS011;7076;51.280;12.584;2022-12-04T02:16:15;32.53;;;15.60;;
14001;SDS011;7076;51.280;12.584;2022-12-04T02:21:23;36.60;;;16.10;;
14001;SDS011;7076;51.280;12.584;2022-12-04T02:26:40;39.67;;;15.03;;
14001;SDS011;7076;51.280;12.584;2022-12-04T02:31:48;37.07;;;16.30;;
14001;SDS011;7076;51.280;12.584;2022-12-04T02:36:54;35.93;;;16.77;;
14001;SDS011;7076;51.280;12.584;2022-12-04T02:42:02;35.43;;;17.13;;
14001;SDS011;7076;51.280;12.584;2022-12-04T02:47:11;36.17;;;17.30;;
14001;SDS011;7076;51.280;12.584;2022-12-04T02:52:17;29.90;;;14.20;;
14001;SDS011;7076;51.280;12.584;2022-12-04T02:57:24;31.93;;;15.80;;
14001;SDS011;7076;51.280;12.584;2022-12-04T03:02:32;37.00;;;16.37;;
14001;SDS011;7076;51.280;12.584;2022-12-04T03:07:37;32.87;;;15.77;;
14001;SDS011;7076;51.280;12.584;2022-12-04T03:12:44;36.70;;;17.37;;
14001;SDS011;7076;51.280;12.584;2022-12-04T03:17:52;34.87;;;16.37;;
14001;SDS011;7076;51.280;12.584;2022-12-04T03:22:58;39.10;;;18.20;;
14001;SDS011;7076;51.280;12.584;2022-12-04T03:28:06;35.97;;;17.83;;
14001;SDS011;7076;51.280;12.584;2022-12-04T03:33:14;37.13;;;17.17;;
14001;SDS011;7076;51.280;12.584;2022-12-04T03:38:19;40.20;;;18.53;;
14001;SDS011;7076;51.280;12.584;2022-12-04T03:43:25;40.63;;;17.87;;
14001;SDS011;7076;51.280;12.584;2022-12-04T03:48:33;39.17;;;17.60;;
14001;SDS011;7076;51.280;12.584;2022-12-04T03:53:41;44.30;;;19.10;;
14001;SDS011;7076;51.280;12.584;2022-12-04T03:58:48;45.17;;;18.70;;
14001;SDS011;7076;51.280;12.584;2022-12-04T04:03:55;47.50;;;18.33;;
14001;SDS011;7076;51.280;12.584;2022-12-04T04:09:01;45.07;;;18.97;;
14001;SDS011;7076;51.280;12.584;2022-12-04T04:14:07;42.13;;;18.67;;
14001;SDS011;7076;51.280;12.584;2022-12-04T04:19:33;43.60;;;20.17;;
14001;SDS011;7076;51.280;12.584;2022-12-04T04:25:06;43.20;;;17.50;;
14001;SDS011;7076;51.280;12.584;2022-12-04T04:30:10;44.00;;;19.60;;
14001;SDS011;7076;51.280;12.584;2022-12-04T04:35:16;46.13;;;19.90;;
14001;SDS011;7076;51.280;12.584;2022-12-04T04:40:23;48.97;;;22.17;;
14001;SDS011;7076;51.280;12.584;2022-12-04T04:45:30;44.70;;;19.20;;
14001;SDS011;7076;51.280;12.584;2022-12-04T04:50:37;40.63;;;17.67;;
14001;SDS011;7076;51.280;12.584;2022-12-04T04:55:40;41.30;;;18.17;;
14001;SDS011;7076;51.280;12.584;2022-12-04T05:00:44;42.80;;;18.13;;
14001;SDS011;7076;51.280;12.584;2022-12-04T05:05:53;40.33;;;18.40;;
14001;SDS011;7076;51.280;12.584;2022-12-04T05:10:56;42.80;;;18.73;;
14001;SDS011;7076;51.280;12.584;2022-12-04T05:15:59;51.03;;;20.57;;
14001;SDS011;7076;51.280;12.584;2022-12-04T05:21:05;45.57;;;17.77;;
14001;SDS011;7076;51.280;12.584;2022-12-04T05:26:08;47.70;;;20.40;;
14001;SDS011;7076;51.280;12.584;2022-12-04T05:31:11;50.63;;;22.07;;
14001;SDS011;7076;51.280;12.584;2022-12-04T05:36:15;46.33;;;19.20;;
14001;SDS011;7076;51.280;12.584;2022-12-04T05:41:18;48.37;;;20.07;;
14001;SDS011;7076;51.280;12.584;2022-12-04T05:46:21;47.47;;;19.60;;
14001;SDS011;7076;51.280;12.584;2022-12-04T05:51:25;48.60;;;21.67;;
14001;SDS011;7076;51.280;12.584;2022-12-04T05:56:28;49.97;;;21.00;;
14001;SDS011;7076;51.280;12.584;2022-12-04T06:01:30;45.37;;;20.97;;
14001;SDS011;7076;51.280;12.584;2022-12-04T06:06:35;40.70;;;18.67;;
14001;SDS011;7076;51.280;12.584;2022-12-04T06:11:39;53.17;;;22.50;;
14001;SDS011;7076;51.280;12.584;2022-12-04T06:16:43;58.57;;;22.53;;
14001;SDS011;7076;51.280;12.584;2022-12-04T06:21:49;46.77;;;21.20;;
14001;SDS011;7076;51.280;12.584;2022-12-04T06:26:54;49.37;;;21.83;;
14001;SDS011;7076;51.280;12.584;2022-12-04T06:32:17;53.63;;;23.07;;
14001;SDS011;7076;51.280;12.584;2022-12-04T06:37:23;57.80;;;22.77;;
14001;SDS011;7076;51.280;12.584;2022-12-04T06:42:26;58.10;;;23.57;;
14001;SDS011;7076;51.280;12.584;2022-12-04T06:47:29;49.07;;;21.17;;
14001;SDS011;7076;51.280;12.584;2022-12-04T06:52:33;50.97;;;23.70;;
14001;SDS011;7076;51.280;12.584;2022-12-04T06:57:36;50.87;;;22.33;;
14001;SDS011;7076;51.280;12.584;2022-12-04T07:02:39;55.07;;;23.50;;
14001;SDS011;7076;51.280;12.584;2022-12-04T07:07:43;50.50;;;21.87;;
14001;SDS011;7076;51.280;12.584;2022-12-04T07:12:46;55.20;;;23.10;;
14001;SDS011;7076;51.280;12.584;2022-12-04T07:17:49;46.13;;;21.00;;
14001;SDS011;7076;51.280;12.584;2022-12-04T07:22:53;43.37;;;21.03;;
14001;SDS011;7076;51.280;12.584;2022-12-04T07:27:56;53.50;;;22.93;;
14001;SDS011;7076;51.280;12.584;2022-12-04T07:32:58;45.93;;;21.37;;
14001;SDS011;7076;51.280;12.584;2022-12-04T07:38:03;49.33;;;22.47;;
14001;SDS011;7076;51.280;12.584;2022-12-04T07:43:06;51.93;;;22.43;;
14001;SDS011;7076;51.280;12.584;2022-12-04T07:48:08;51.80;;;21.83;;
14001;SDS011;7076;51.280;12.584;2022-12-04T07:53:13;54.07;;;23.97;;
14001;SDS011;7076;51.280;12.584;2022-12-04T07:58:15;58.13;;;23.50;;
14001;SDS011;7076;51.280;12.584;2022-12-04T08:03:18;44.20;;;19.00;;
14001;SDS011;7076;51.280;12.584;2022-12-04T08:08:23;55.80;;;22.77;;
14001;SDS011;7076;51.280;12.584;2022-12-04T08:13:25;51.30;;;23.77;;
14001;SDS011;7076;51.280;12.584;2022-12-04T08:18:28;51.40;;;22.90;;
14001;SDS011;7076;51.280;12.584;2022-12-04T08:23:33;61.23;;;24.00;;
14001;SDS011;7076;51.280;12.584;2022-12-04T08:28:36;48.83;;;21.63;;
14001;SDS011;7076;51.280;12.584;2022-12-04T08:33:40;51.77;;;23.27;;
14001;SDS011;7076;51.280;12.584;2022-12-04T08:38:45;48.90;;;22.97;;
14001;SDS011;7076;51.280;12.584;2022-12-04T08:43:48;60.37;;;26.20;;
14001;SDS011;7076;51.280;12.584;2022-12-04T08:48:53;48.00;;;21.37;;
14001;SDS011;7076;51.280;12.584;2022-12-04T08:53:58;60.27;;;24.53;;
14001;SDS011;7076;51.280;12.584;2022-12-04T08:59:02;52.27;;;23.17;;
14001;SDS011;7076;51.280;12.584;2022-12-04T09:04:05;61.37;;;25.40;;
14001;SDS011;7076;51.280;12.584;2022-12-04T09:09:09;56.10;;;25.10;;
14001;SDS011;7076;51.280;12.584;2022-12-04T09:14:13;52.77;;;23.43;;
14001;SDS011;7076;51.280;12.584;2022-12-04T09:19:15;57.63;;;24.30;;
14001;SDS011;7076;51.280;12.584;2022-12-04T09:24:20;59.80;;;26.30;;
14001;SDS011;7076;51.280;12.584;2022-12-04T09:29:23;56.67;;;24.87;;
14001;SDS011;7076;51.280;12.584;2022-12-04T09:34:27;65.63;;;25.07;;
14001;SDS011;7076;51.280;12.584;2022-12-04T09:39:31;57.17;;;24.50;;
14001;SDS011;7076;51.280;12.584;2022-12-04T09:44:35;65.97;;;26.30;;
14001;SDS011;7076;51.280;12.584;2022-12-04T09:49:42;64.53;;;27.33;;
14001;SDS011;7076;51.280;12.584;2022-12-04T09:54:49;66.03;;;27.00;;
14001;SDS011;7076;51.280;12.584;2022-12-04T09:59:53;62.20;;;26.63;;
14001;SDS011;7076;51.280;12.584;2022-12-04T10:04:57;61.77;;;25.57;;
14001;SDS011;7076;51.280;12.584;2022-12-04T10:10:02;63.23;;;25.57;;
14001;SDS011;7076;51.280;12.584;2022-12-04T10:15:10;64.40;;;25.83;;
14001;SDS011;7076;51.280;12.584;2022-12-04T10:20:25;61.93;;;24.47;;
14001;SDS011;7076;51.280;12.584;2022-12-04T10:25:39;65.40;;;27.37;;
14001;SDS011;7076;51.280;12.584;2022-12-04T10:30:43;51.23;;;21.17;;
14001;SDS011;7076;51.280;12.584;2022-12-04T10:35:48;57.63;;;24.57;;
14001;SDS011;7076;51.280;12.584;2022-12-04T10:40:55;60.77;;;24.73;;
14001;SDS011;7076;51.280;12.584;2022-12-04T10:45:59;60.93;;;26.13;;
14001;SDS011;7076;51.280;12.584;2022-12-04T10:51:02;59.17;;;24.37;;
14001;SDS011;7076;51.280;12.584;2022-12-04T10:56:11;58.47;;;24.20;;
14001;SDS011;7076;51.280;12.584;2022-12-04T11:01:14;62.27;;;25.87;;
14001;SDS011;7076;51.280;12.584;2022-12-04T11:06:22;60.23;;;24.90;;
14001;SDS011;7076;51.280;12.584;2022-12-04T11:11:27;57.90;;;22.73;;
14001;SDS011;7076;51.280;12.584;2022-12-04T11:16:32;49.47;;;23.83;;
14001;SDS011;7076;51.280;12.584;2022-12-04T11:21:37;61.53;;;25.60;;
14001;SDS011;7076;51.280;12.584;2022-12-04T11:26:42;52.17;;;24.50;;
14001;SDS011;7076;51.280;12.584;2022-12-04T11:31:48;56.90;;;24.10;;
14001;SDS011;7076;51.280;12.584;2022-12-04T11:36:52;62.37;;;26.20;;
14001;SDS011;7076;51.280;12.584;2022-12-04T11:42:02;62.07;;;25.23;;
14001;SDS011;7076;51.280;12.584;2022-12-04T11:47:14;52.20;;;23.53;;
14001;SDS011;7076;51.280;12.584;2022-12-04T11:52:20;51.03;;;22.37;;
14001;SDS011;7076;51.280;12.584;2022-12-04T11:57:31;57.03;;;23.97;;
14001;SDS011;7076;51.280;12.584;2022-12-04T12:02:42;56.83;;;22.27;;
14001;SDS011;7076;51.280;12.584;2022-12-04T12:07:57;49.63;;;21.43;;
14001;SDS011;7076;51.280;12.584;2022-12-04T12:13:06;62.17;;;26.90;;
14001;SDS011;7076;51.280;12.584;2022-12-04T12:18:21;61.33;;;23.77;;
14001;SDS011;7076;51.280;12.584;2022-12-04T12:23:41;62.80;;;26.23;;
14001;SDS011;7076;51.280;12.584;2022-12-04T12:29:03;48.70;;;21.17;;
14001;SDS011;7076;51.280;12.584;2022-12-04T12:34:13;57.37;;;25.00;;
14001;SDS011;7076;51.280;12.584;2022-12-04T12:39:21;57.53;;;24.97;;
14001;SDS011;7076;51.280;12.584;2022-12-04T12:44:29;54.97;;;25.33;;
14001;SDS011;7076;51.280;12.584;2022-12-04T12:49:37;61.00;;;26.10;;
14001;SDS011;7076;51.280;12.584;2022-12-04T12:54:45;53.13;;;22.07;;
14001;SDS011;7076;51.280;12.584;2022-12-04T12:59:51;58.07;;;24.23;;
14001;SDS011;7076;51.280;12.584;2022-12-04T13:04:57;52.87;;;22.83;;
14001;SDS011;7076;51.280;12.584;2022-12-04T13:10:04;51.20;;;22.70;;
14001;SDS011;7076;51.280;12.584;2022-12-04T13:15:15;50.53;;;22.23;;
14001;SDS011;7076;51.280;12.584;2022-12-04T13:20:20;51.47;;;23.27;;
14001;SDS011;7076;51.280;12.584;2022-12-04T13:25:30;65.17;;;25.83;;
14001;SDS011;7076;51.280;12.584;2022-12-04T13:30:41;57.23;;;25.10;;
14001;SDS011;7076;51.280;12.584;2022-12-04T13:35:53;70.20;;;27.30;;
14001;SDS011;7076;51.280;12.584;2022-12-04T13:41:04;59.60;;;24.23;;
14001;SDS011;7076;51.280;12.584;2022-12-04T13:46:20;51.43;;;23.43;;
14001;SDS011;7076;51.280;12.584;2022-12-04T13:51:35;63.70;;;25.37;;
14001;SDS011;7076;51.280;12.584;2022-12-04T13:56:40;58.80;;;25.77;;
14001;SDS011;7076;51.280;12.584;2022-12-04T14:01:45;63.53;;;25.73;;
14001;SDS011;7076;51.280;12.584;2022-12-04T14:06:50;65.53;;;25.67;;
14001;SDS011;7076;51.280;12.584;2022-12-04T14:11:55;57.57;;;26.80;;
14001;SDS011;7076;51.280;12.584;2022-12-04T14:17:01;66.47;;;25.47;;
14001;SDS011;7076;51.280;12.584;2022-12-04T14:22:10;60.50;;;24.87;;
14001;SDS011;7076;51.280;12.584;2022-12-04T14:27:31;58.90;;;25.17;;
14001;SDS011;7076;51.280;12.584;2022-12-04T14:32:44;62.83;;;24.40;;
14001;SDS011;7076;51.280;12.584;2022-12-04T14:37:50;68.73;;;27.27;;
14001;SDS011;7076;51.280;12.584;2022-12-04T14:42:54;51.07;;;22.60;;
14001;SDS011;7076;51.280;12.584;2022-12-04T14:53:26;54.73;;;23.03;;
14001;SDS011;7076;51.280;12.584;2022-12-04T14:58:36;59.60;;;23.07;;
14001;SDS011;7076;51.280;12.584;2022-12-04T15:03:41;66.77;;;25.80;;
14001;SDS011;7076;51.280;12.584;2022-12-04T15:08:49;60.20;;;24.07;;
14001;SDS011;7076;51.280;12.584;2022-12-04T15:13:53;60.80;;;23.67;;
14001;SDS011;7076;51.280;12.584;2022-12-04T15:19:14;66.77;;;25.37;;
14001;SDS011;7076;51.280;12.584;2022-12-04T15:24:18;58.83;;;22.40;;
14001;SDS011;7076;51.280;12.584;2022-12-04T15:29:24;55.23;;;22.93;;
14001;SDS011;7076;51.280;12.584;2022-12-04T15:34:32;54.50;;;24.20;;
14001;SDS011;7076;51.280;12.584;2022-12-04T15:39:38;58.73;;;23.90;;
14001;SDS011;7076;51.280;12.584;2022-12-04T15:44:48;59.53;;;24.53;;
14001;SDS011;7076;51.280;12.584;2022-12-04T15:49:53;54.67;;;22.70;;
14001;SDS011;7076;51.280;12.584;2022-12-04T15:54:58;52.03;;;22.03;;
14001;SDS011;7076;51.280;12.584;2022-12-04T16:00:02;55.13;;;24.40;;
14001;SDS011;7076;51.280;12.584;2022-12-04T16:05:11;61.77;;;25.07;;
14001;SDS011;7076;51.280;12.584;2022-12-04T16:10:19;57.40;;;22.97;;
14001;SDS011;7076;51.280;12.584;2022-12-04T16:15:24;55.50;;;23.80;;
14001;SDS011;7076;51.280;12.584;2022-12-04T16:20:34;58.57;;;26.00;;
14001;SDS011;7076;51.280;12.584;2022-12-04T16:25:38;56.73;;;25.10;;
14001;SDS011;7076;51.280;12.584;2022-12-04T16:30:40;58.90;;;24.73;;
14001;SDS011;7076;51.280;12.584;2022-12-04T16:35:45;49.97;;;21.83;;
14001;SDS011;7076;51.280;12.584;2022-12-04T16:40:47;63.87;;;26.77;;
14001;SDS011;7076;51.280;12.584;2022-12-04T16:45:51;54.20;;;21.13;;
14001;SDS011;7076;51.280;12.584;2022-12-04T16:50:56;60.13;;;24.23;;
14001;SDS011;7076;51.280;12.584;2022-12-04T16:55:59;60.93;;;25.07;;
14001;SDS011;7076;51.280;12.584;2022-12-04T17:01:02;53.60;;;22.60;;
14001;SDS011;7076;51.280;12.584;2022-12-04T17:06:08;63.97;;;25.20;;
14001;SDS011;7076;51.280;12.584;2022-12-04T17:11:11;64.60;;;25.87;;
14001;SDS011;7076;51.280;12.584;2022-12-04T17:16:14;61.83;;;23.87;;
14001;SDS011;7076;51.280;12.584;2022-12-04T17:21:21;55.50;;;24.07;;
14001;SDS011;7076;51.280;12.584;2022-12-04T17:26:24;69.30;;;26.20;;
14001;SDS011;7076;51.280;12.584;2022-12-04T17:31:27;51.63;;;21.67;;
14001;SDS011;7076;51.280;12.584;2022-12-04T17:36:33;69.80;;;25.93;;
14001;SDS011;7076;51.280;12.584;2022-12-04T17:41:36;62.17;;;25.97;;
14001;SDS011;7076;51.280;12.584;2022-12-04T17:46:39;64.43;;;25.43;;
14001;SDS011;7076;51.280;12.584;2022-12-04T17:51:43;56.90;;;24.50;;
14001;SDS011;7076;51.280;12.584;2022-12-04T17:56:46;62.87;;;25.03;;
14001;SDS011;7076;51.280;12.584;2022-12-04T18:01:55;67.83;;;27.47;;
14001;SDS011;7076;51.280;12.584;2022-12-04T18:06:59;64.17;;;27.40;;
14001;SDS011;7076;51.280;12.584;2022-12-04T18:12:02;60.90;;;26.40;;
14001;SDS011;7076;51.280;12.584;2022-12-04T18:17:04;59.60;;;25.47;;
14001;SDS011;7076;51.280;12.584;2022-12-04T18:22:09;66.70;;;28.17;;
14001;SDS011;7076;51.280;12.584;2022-12-04T18:27:12;53.73;;;24.73;;
14001;SDS011;7076;51.280;12.584;2022-12-04T18:32:14;52.73;;;24.60;;
14001;SDS011;7076;51.280;12.584;2022-12-04T18:37:19;67.03;;;26.13;;
14001;SDS011;7076;51.280;12.584;2022-12-04T18:42:21;54.77;;;24.50;;
14001;SDS011;7076;51.280;12.584;2022-12-04T18:47:24;67.93;;;27.77;;
14001;SDS011;7076;51.280;12.584;2022-12-04T18:52:28;60.50;;;23.40;;
14001;SDS011;7076;51.280;12.584;2022-12-04T18:57:31;70.00;;;28.63;;
14001;SDS011;7076;51.280;12.584;2022-12-04T19:02:34;70.90;;;27.07;;
14001;SDS011;7076;51.280;12.584;2022-12-04T19:07:38;66.73;;;27.60;;
14001;SDS011;7076;51.280;12.584;2022-12-04T19:12:41;63.27;;;26.80;;
14001;SDS011;7076;51.280;12.584;2022-12-04T19:17:44;67.37;;;27.83;;
14001;SDS011;7076;51.280;12.584;2022-12-04T19:22:48;56.83;;;25.17;;
14001;SDS011;7076;51.280;12.584;2022-12-04T19:27:51;51.27;;;23.43;;
14001;SDS011;7076;51.280;12.584;2022-12-04T19:32:54;58.23;;;26.73;;
14001;SDS011;7076;51.280;12.584;2022-12-04T19:37:58;53.73;;;23.57;;
14001;SDS011;7076;51.280;12.584;2022-12-04T19:43:01;55.50;;;24.77;;
14001;SDS011;7076;51.280;12.584;2022-12-04T19:48:04;54.40;;;24.53;;
14001;SDS011;7076;51.280;12.584;2022-12-04T19:53:08;61.10;;;28.63;;
14001;SDS011;7076;51.280;12.584;2022-12-04T19:58:11;52.17;;;24.57;;
14001;SDS011;7076;51.280;12.584;2022-12-04T20:03:14;47.50;;;22.80;;
14001;SDS011;7076;51.280;12.584;2022-12-04T20:08:18;61.20;;;27.43;;
14001;SDS011;7076;51.280;12.584;2022-12-04T20:13:21;57.40;;;25.80;;
14001;SDS011;7076;51.280;12.584;2022-12-04T20:18:24;59.73;;;25.63;;
14001;SDS011;7076;51.280;12.584;2022-12-04T20:23:28;55.77;;;25.90;;
14001;SDS011;7076;51.280;12.584;2022-12-04T20:28:31;61.97;;;28.87;;
14001;SDS011;7076;51.280;12.584;2022-12-04T20:33:35;63.13;;;27.50;;
14001;SDS011;7076;51.280;12.584;2022-12-04T20:38:39;53.63;;;24.20;;
14001;SDS011;7076;51.280;12.584;2022-12-04T20:43:43;58.00;;;27.17;;
14001;SDS011;7076;51.280;12.584;2022-12-04T20:48:47;62.80;;;27.23;;
14001;SDS011;7076;51.280;12.584;2022-12-04T20:53:52;44.50;;;24.00;;
14001;SDS011;7076;51.280;12.584;2022-12-04T20:58:55;57.30;;;26.97;;
14001;SDS011;7076;51.280;12.584;2022-12-04T21:03:58;57.33;;;26.87;;
14001;SDS011;7076;51.280;12.584;2022-12-04T21:09:03;50.20;;;24.63;;
14001;SDS011;7076;51.280;12.584;2022-12-04T21:14:09;56.80;;;27.40;;
14001;SDS011;7076;51.280;12.584;2022-12-04T21:19:43;46.40;;;21.67;;
14001;SDS011;7076;51.280;12.584;2022-12-04T21:24:48;50.20;;;24.90;;
14001;SDS011;7076;51.280;12.584;2022-12-04T21:29:51;51.93;;;26.37;;
14001;SDS011;7076;51.280;12.584;2022-12-04T21:34:54;57.43;;;27.40;;
14001;SDS011;7076;51.280;12.584;2022-12-04T21:39:58;50.23;;;25.00;;
14001;SDS011;7076;51.280;12.584;2022-12-04T21:45:04;50.03;;;24.17;;
14001;SDS011;7076;51.280;12.584;2022-12-04T21:50:09;48.70;;;23.23;;
14001;SDS011;7076;51.280;12.584;2022-12-04T21:55:13;52.23;;;25.90;;
14001;SDS011;7076;51.280;12.584;2022-12-04T22:00:16;49.13;;;23.43;;
14001;SDS011;7076;51.280;12.584;2022-12-04T22:05:19;47.30;;;23.10;;
14001;SDS011;7076;51.280;12.584;2022-12-04T22:10:23;52.17;;;26.63;;
14001;SDS011;7076;51.280;12.584;2022-12-04T22:15:27;53.57;;;25.17;;
14001;SDS011;7076;51.280;12.584;2022-12-04T22:20:29;53.23;;;25.23;;
14001;SDS011;7076;51.280;12.584;2022-12-04T22:25:34;51.50;;;26.40;;
14001;SDS011;7076;51.280;12.584;2022-12-04T22:30:38;53.77;;;25.30;;
14001;SDS011;7076;51.280;12.584;2022-12-04T22:35:41;58.33;;;26.27;;
14001;SDS011;7076;51.280;12.584;2022-12-04T22:40:45;49.00;;;24.07;;
14001;SDS011;7076;51.280;12.584;2022-12-04T22:45:48;50.47;;;24.30;;
14001;SDS011;7076;51.280;12.584;2022-12-04T22:50:54;56.07;;;25.87;;
14001;SDS011;7076;51.280;12.584;2022-12-04T22:55:59;47.60;;;24.33;;
14001;SDS011;7076;51.280;12.584;2022-12-04T23:01:07;49.60;;;23.47;;
14001;SDS011;7076;51.280;12.584;2022-12-04T23:06:11;59.80;;;25.37;;
14001;SDS011;7076;51.280;12.584;2022-12-04T23:11:16;51.30;;;24.30;;
14001;SDS011;7076;51.280;12.584;2022-12-04T23:16:21;45.93;;;23.33;;
14001;SDS011;7076;51.280;12.584;2022-12-04T23:21:24;44.03;;;20.03;;
14001;SDS011;7076;51.280;12.584;2022-12-04T23:26:30;42.53;;;22.30;;
14001;SDS011;7076;51.280;12.584;2022-12-04T23:31:34;45.33;;;22.80;;
14001;SDS011;7076;51.280;12.584;2022-12-04T23:36:37;40.30;;;20.10;;
14001;SDS011;7076;51.280;12.584;2022-12-04T23:41:41;44.43;;;21.87;;
14001;SDS011;7076;51.280;12.584;2022-12-04T23:46:44;43.50;;;21.60;;
14001;SDS011;7076;51.280;12.584;2022-12-04T23:51:47;36.90;;;19.07;;
14001;SDS011;7076;51.280;12.584;2022-12-04T23:56:51;43.07;;;20.77;;
